Time;durP1;ratioP1;P1;durP2;ratioP2;P2;SDS_P1;SDS_P2;PMS_P1;PMS_P2;Temp;Humidity;BMP_temperature;BMP_pressure;BME280_temperature;BME280_humidity;BME280_pressure;Samples;Min_cycle;Max_cycle;Signal;HPM_P1;HPM_P2
2022/07/31 00:01:33;;;;;;;7.97;7.20;;;18.00;99.90;;;;;;4920273;29;20664;-73
2022/07/31 00:03:59;;;;;;;7.57;6.80;;;17.90;99.90;;;;;;4932349;29;20209;-73
2022/07/31 00:06:25;;;;;;;7.37;6.53;;;17.80;99.90;;;;;;4932169;29;20663;-73
2022/07/31 00:08:50;;;;;;;6.43;6.03;;;17.80;99.90;;;;;;4931886;29;20177;-73
2022/07/31 00:11:16;;;;;;;7.47;6.70;;;17.70;99.90;;;;;;4928709;29;20202;-73
2022/07/31 00:13:42;;;;;;;7.03;6.00;;;17.70;99.90;;;;;;4929468;29;20200;-73
2022/07/31 00:16:07;;;;;;;6.13;5.53;;;17.60;99.90;;;;;;4930035;29;20189;-73
2022/07/31 00:18:34;;;;;;;7.10;5.97;;;17.60;99.90;;;;;;4929972;29;20185;-74
2022/07/31 00:21:02;;;;;;;7.50;5.87;;;17.60;99.90;;;;;;4929581;29;21888;-75
2022/07/31 00:23:28;;;;;;;5.10;4.70;;;17.60;99.90;;;;;;4929550;29;20494;-73
2022/07/31 00:25:54;;;;;;;4.90;4.50;;;17.60;99.90;;;;;;4931480;29;20421;-73
2022/07/31 00:28:20;;;;;;;5.90;5.27;;;17.60;99.90;;;;;;4933065;29;20421;-74
2022/07/31 00:30:46;;;;;;;9.10;6.00;;;17.50;99.90;;;;;;4931741;29;20177;-75
2022/07/31 00:33:12;;;;;;;4.93;4.53;;;17.50;99.90;;;;;;4931381;29;20189;-75
2022/07/31 00:35:38;;;;;;;6.90;5.10;;;17.50;99.90;;;;;;4915689;29;20440;-73
2022/07/31 00:38:03;;;;;;;9.67;4.40;;;17.50;99.90;;;;;;4931310;29;20181;-75
2022/07/31 00:40:29;;;;;;;5.17;4.77;;;17.60;99.90;;;;;;4930886;29;20227;-73
2022/07/31 00:42:54;;;;;;;5.93;5.40;;;17.60;99.90;;;;;;4930620;29;20587;-74
2022/07/31 00:45:20;;;;;;;5.67;5.23;;;17.60;99.90;;;;;;4931147;29;20209;-74
2022/07/31 00:47:45;;;;;;;13.03;5.50;;;17.60;99.90;;;;;;4931345;29;20173;-74
2022/07/31 00:50:11;;;;;;;6.50;5.63;;;17.60;99.90;;;;;;4932625;29;20216;-74
2022/07/31 00:52:37;;;;;;;6.17;4.97;;;17.60;99.90;;;;;;4930552;29;20264;-75
2022/07/31 00:55:03;;;;;;;6.07;5.67;;;17.60;99.90;;;;;;4900418;29;20417;-76
2022/07/31 00:57:29;;;;;;;5.20;4.70;;;17.60;99.90;;;;;;4934831;29;20181;-72
2022/07/31 00:59:55;;;;;;;7.50;4.87;;;17.60;99.90;;;;;;4935921;29;20459;-73
2022/07/31 02:32:58;;;;;;;5.27;3.97;;;16.10;99.90;;;;;;5041541;23;20910;-73
2022/07/31 02:35:24;;;;;;;4.30;4.00;;;16.00;99.90;;;;;;4923414;29;20442;-69
2022/07/31 02:37:52;;;;;;;4.20;3.90;;;16.00;99.90;;;;;;4933950;29;20460;-70
2022/07/31 02:40:18;;;;;;;3.90;3.60;;;16.00;99.90;;;;;;4935468;29;20979;-72
2022/07/31 02:42:45;;;;;;;4.67;4.37;;;15.90;99.90;;;;;;4934384;29;20976;-73
2022/07/31 02:45:12;;;;;;;5.57;3.93;;;15.90;99.90;;;;;;4934587;29;20450;-73
2022/07/31 02:47:38;;;;;;;11.07;4.80;;;15.80;99.90;;;;;;4935388;29;20995;-73
2022/07/31 02:50:05;;;;;;;7.47;4.10;;;15.80;99.90;;;;;;4935166;29;20958;-73
2022/07/31 02:52:30;;;;;;;6.77;5.13;;;15.80;99.90;;;;;;4933473;29;20436;-73
2022/07/31 02:54:58;;;;;;;4.50;4.10;;;15.80;99.90;;;;;;4934622;29;20414;-72
2022/07/31 02:57:23;;;;;;;4.00;3.70;;;15.70;99.90;;;;;;4933982;29;20177;-72
2022/07/31 02:59:49;;;;;;;4.70;4.30;;;15.70;99.90;;;;;;4934136;29;20424;-71
2022/07/31 03:02:14;;;;;;;4.23;4.00;;;15.60;99.90;;;;;;4932355;29;20200;-73
2022/07/31 03:04:40;;;;;;;4.50;4.10;;;15.60;99.90;;;;;;4933772;29;20723;-74
2022/07/31 03:07:06;;;;;;;8.83;5.13;;;15.70;99.90;;;;;;4934003;29;20529;-73
2022/07/31 03:09:31;;;;;;;4.40;4.00;;;15.60;99.90;;;;;;4933896;29;20247;-73
2022/07/31 03:11:57;;;;;;;5.13;4.73;;;15.60;99.90;;;;;;4934268;29;20196;-72
2022/07/31 03:14:24;;;;;;;4.93;4.53;;;15.60;99.90;;;;;;4940563;29;20621;-74
2022/07/31 03:16:52;;;;;;;4.80;4.40;;;15.60;99.90;;;;;;4933371;29;20440;-72
2022/07/31 03:19:19;;;;;;;5.80;4.87;;;15.60;99.90;;;;;;4933552;29;20532;-72
2022/07/31 03:21:46;;;;;;;3.93;3.70;;;15.50;99.90;;;;;;4932913;29;20452;-74
2022/07/31 03:24:12;;;;;;;6.10;4.00;;;15.50;99.90;;;;;;4933675;29;20464;-73
2022/07/31 03:26:38;;;;;;;4.63;4.23;;;15.40;99.90;;;;;;4933769;29;20957;-73
2022/07/31 03:29:03;;;;;;;4.30;4.10;;;15.40;99.90;;;;;;4933420;29;20952;-75
2022/07/31 03:31:29;;;;;;;5.33;4.83;;;15.40;99.90;;;;;;4932663;29;20209;-71
2022/07/31 03:33:55;;;;;;;4.57;4.27;;;15.40;99.90;;;;;;4934002;29;20239;-74
2022/07/31 03:36:21;;;;;;;7.97;4.40;;;15.30;99.90;;;;;;4933681;29;20574;-72
2022/07/31 03:38:46;;;;;;;4.87;4.57;;;15.30;99.90;;;;;;4933633;29;20425;-73
2022/07/31 03:41:12;;;;;;;4.40;4.10;;;15.40;99.90;;;;;;4929122;29;20529;-70
2022/07/31 03:43:40;;;;;;;4.73;4.33;;;15.30;99.90;;;;;;4932704;29;20206;-72
2022/07/31 03:46:06;;;;;;;4.47;4.17;;;15.30;99.90;;;;;;4933490;29;20224;-72
2022/07/31 03:48:32;;;;;;;7.50;4.30;;;15.30;99.90;;;;;;4933490;29;20413;-69
2022/07/31 03:50:58;;;;;;;5.27;4.70;;;15.30;99.90;;;;;;4932709;29;20457;-73
2022/07/31 03:53:24;;;;;;;5.40;4.87;;;15.30;99.90;;;;;;4933362;29;20222;-72
2022/07/31 03:55:50;;;;;;;5.40;4.80;;;15.30;99.90;;;;;;4932017;29;20731;-72
2022/07/31 03:58:18;;;;;;;5.00;4.60;;;15.30;99.90;;;;;;4932894;29;20412;-72
2022/07/31 04:00:44;;;;;;;7.33;5.27;;;15.30;99.90;;;;;;4932621;29;20431;-73
2022/07/31 04:03:12;;;;;;;4.90;4.50;;;15.20;99.90;;;;;;4932905;29;20455;-73
2022/07/31 04:05:38;;;;;;;6.60;5.30;;;15.30;99.90;;;;;;4932713;29;20843;-73
2022/07/31 04:08:05;;;;;;;7.10;3.90;;;15.30;99.90;;;;;;4932852;29;20514;-73
2022/07/31 04:10:31;;;;;;;4.13;3.90;;;15.20;99.90;;;;;;4932621;29;20421;-72
2022/07/31 04:12:56;;;;;;;6.43;5.37;;;15.20;99.90;;;;;;4932747;29;20580;-73
2022/07/31 04:15:22;;;;;;;6.80;4.73;;;15.20;99.90;;;;;;4933218;29;20177;-73
2022/07/31 04:17:48;;;;;;;5.40;4.90;;;15.20;99.90;;;;;;4932735;29;20196;-74
2022/07/31 04:20:14;;;;;;;5.30;4.90;;;15.20;99.90;;;;;;4932714;29;20187;-74
2022/07/31 04:22:40;;;;;;;5.20;4.10;;;15.30;99.90;;;;;;4932593;29;20570;-73
2022/07/31 04:25:06;;;;;;;8.93;3.97;;;15.30;99.90;;;;;;4932908;29;20236;-74
2022/07/31 04:27:33;;;;;;;7.13;4.70;;;15.30;99.90;;;;;;4932956;29;20415;-71
2022/07/31 04:29:59;;;;;;;4.67;4.37;;;15.30;99.90;;;;;;4933655;29;20938;-74
2022/07/31 04:32:24;;;;;;;4.07;3.77;;;15.30;99.90;;;;;;4935465;29;20451;-74
2022/07/31 04:34:50;;;;;;;5.83;4.70;;;15.30;99.90;;;;;;4936857;29;20180;-73
2022/07/31 04:37:15;;;;;;;4.80;4.50;;;15.40;99.90;;;;;;4936738;29;20535;-75
2022/07/31 04:39:42;;;;;;;4.93;4.57;;;15.40;99.90;;;;;;4936950;29;20838;-73
2022/07/31 04:42:07;;;;;;;4.80;4.40;;;15.40;99.90;;;;;;4935657;29;20207;-74
2022/07/31 04:44:33;;;;;;;5.87;5.37;;;15.40;99.90;;;;;;4936184;29;20949;-73
2022/07/31 04:47:04;;;;;;;4.80;4.40;;;15.60;99.90;;;;;;4936680;29;20185;-74
2022/07/31 04:49:31;;;;;;;6.37;4.63;;;15.70;99.90;;;;;;4936772;29;20268;-73
2022/07/31 04:51:57;;;;;;;4.43;4.13;;;15.80;99.90;;;;;;4935754;29;20524;-74
2022/07/31 04:54:23;;;;;;;5.70;5.20;;;16.00;99.90;;;;;;4936258;29;20421;-73
2022/07/31 04:56:48;;;;;;;5.70;5.17;;;16.00;99.90;;;;;;4936863;29;20780;-73
2022/07/31 04:59:16;;;;;;;6.57;4.30;;;16.10;99.90;;;;;;4936491;29;20220;-73
2022/07/31 05:01:43;;;;;;;5.47;4.97;;;16.20;99.90;;;;;;4936358;29;20198;-73
2022/07/31 05:04:09;;;;;;;4.80;4.40;;;16.40;99.90;;;;;;4937333;29;20508;-73
2022/07/31 05:06:40;;;;;;;4.77;4.40;;;16.60;99.90;;;;;;4936881;29;20451;-73
2022/07/31 05:09:08;;;;;;;5.50;4.97;;;16.70;99.90;;;;;;4939707;29;20205;-73
2022/07/31 05:11:35;;;;;;;4.70;4.40;;;16.90;99.90;;;;;;4943147;29;21027;-73
2022/07/31 05:14:02;;;;;;;4.37;3.97;;;17.10;99.90;;;;;;4937914;29;20944;-73
2022/07/31 05:16:29;;;;;;;4.47;4.13;;;17.30;99.90;;;;;;4936160;29;20418;-72
2022/07/31 05:18:55;;;;;;;5.27;3.53;;;17.50;99.90;;;;;;4934343;29;20443;-72
2022/07/31 05:21:23;;;;;;;3.63;3.40;;;17.80;99.90;;;;;;4935085;29;20472;-71
2022/07/31 05:23:49;;;;;;;5.37;4.17;;;18.00;99.90;;;;;;4936282;29;20457;-71
2022/07/31 05:26:16;;;;;;;4.90;4.40;;;18.20;99.90;;;;;;4936181;29;20468;-72
2022/07/31 05:28:42;;;;;;;6.50;4.20;;;18.30;99.90;;;;;;4935858;29;20870;-71
2022/07/31 05:31:08;;;;;;;5.03;4.07;;;18.40;99.90;;;;;;4934309;29;20516;-72
2022/07/31 05:33:34;;;;;;;4.53;4.23;;;18.50;99.90;;;;;;4934955;29;20421;-70
2022/07/31 05:36:00;;;;;;;5.50;5.00;;;18.60;99.90;;;;;;4935674;29;20418;-71
2022/07/31 05:38:27;;;;;;;4.93;4.57;;;18.70;99.90;;;;;;4935803;29;20187;-71
2022/07/31 05:40:52;;;;;;;4.90;4.30;;;18.80;99.90;;;;;;4934479;29;20428;-70
2022/07/31 05:43:18;;;;;;;4.87;4.57;;;18.90;99.90;;;;;;4935153;29;20464;-71
2022/07/31 05:45:45;;;;;;;4.70;4.40;;;19.00;99.90;;;;;;4935759;29;20178;-71
2022/07/31 05:48:15;;;;;;;6.03;4.93;;;19.10;99.90;;;;;;4934740;29;20256;-68
2022/07/31 05:50:44;;;;;;;5.45;4.80;;;19.20;99.90;;;;;;4933830;29;20913;-71
2022/07/31 05:53:16;;;;;;;5.20;4.87;;;19.30;99.90;;;;;;4935206;29;20181;-71
2022/07/31 05:55:46;;;;;;;6.60;5.10;;;19.50;99.90;;;;;;4934498;29;20425;-72
2022/07/31 05:58:13;;;;;;;10.33;4.23;;;19.50;99.90;;;;;;4934929;29;20914;-69
2022/07/31 06:00:39;;;;;;;7.13;4.27;;;19.70;99.90;;;;;;4934339;29;20421;-72
2022/07/31 06:03:05;;;;;;;9.73;4.73;;;19.80;99.90;;;;;;4934414;29;20604;-71
2022/07/31 06:05:31;;;;;;;5.03;4.63;;;19.90;99.90;;;;;;4935302;29;20516;-72
2022/07/31 06:07:58;;;;;;;5.87;5.37;;;20.00;99.90;;;;;;4935425;29;20185;-71
2022/07/31 06:10:25;;;;;;;5.50;5.07;;;20.00;99.90;;;;;;4934295;29;20433;-69
2022/07/31 06:12:50;;;;;;;7.63;5.00;;;20.10;99.90;;;;;;4934701;29;20448;-71
2022/07/31 06:15:16;;;;;;;5.60;5.10;;;20.20;99.90;;;;;;4935014;29;20409;-71
2022/07/31 06:17:42;;;;;;;7.73;4.50;;;20.30;99.90;;;;;;4935152;29;20676;-73
2022/07/31 06:20:09;;;;;;;5.22;4.60;;;20.30;99.90;;;;;;4933085;29;20802;-74
2022/07/31 06:22:35;;;;;;;4.53;4.13;;;20.40;99.90;;;;;;4933941;29;20762;-71
2022/07/31 06:25:01;;;;;;;4.73;4.43;;;20.40;99.90;;;;;;4934799;29;20453;-71
2022/07/31 06:27:27;;;;;;;4.63;4.13;;;20.40;99.90;;;;;;4934570;29;20813;-71
2022/07/31 06:29:52;;;;;;;6.67;4.80;;;20.50;99.90;;;;;;4933644;29;20421;-69
2022/07/31 06:32:19;;;;;;;5.27;4.77;;;20.70;99.90;;;;;;4933711;29;20312;-71
2022/07/31 06:34:44;;;;;;;5.43;3.80;;;20.70;99.90;;;;;;4934650;29;20177;-71
2022/07/31 06:37:10;;;;;;;4.90;4.30;;;20.80;99.90;;;;;;4934683;29;20847;-71
2022/07/31 06:39:36;;;;;;;4.90;4.47;;;20.90;99.90;;;;;;4934388;29;20182;-70
2022/07/31 06:42:01;;;;;;;5.07;4.67;;;21.00;99.90;;;;;;4933472;29;20200;-74
2022/07/31 06:44:28;;;;;;;4.67;4.23;;;21.20;99.90;;;;;;4925347;28;20201;-75
2022/07/31 06:46:53;;;;;;;7.27;4.40;;;21.30;99.90;;;;;;4820077;29;20379;-75
2022/07/31 06:49:19;;;;;;;8.20;4.17;;;21.40;99.90;;;;;;4817978;29;20895;-79
2022/07/31 06:51:46;;;;;;;6.60;4.83;;;21.50;99.90;;;;;;4821204;29;20676;-76
2022/07/31 06:54:11;;;;;;;5.03;4.60;;;21.60;99.90;;;;;;4873256;29;21159;-74
2022/07/31 06:56:38;;;;;;;9.33;4.37;;;21.60;99.90;;;;;;4932653;29;20540;-74
2022/07/31 06:59:05;;;;;;;4.80;4.40;;;21.80;99.90;;;;;;4933030;29;20228;-75
2022/07/31 07:01:31;;;;;;;6.40;4.20;;;21.80;99.90;;;;;;4931868;29;20977;-76
2022/07/31 07:03:56;;;;;;;5.87;5.23;;;21.90;99.90;;;;;;4933161;29;20488;-75
2022/07/31 07:06:22;;;;;;;13.30;4.23;;;22.10;99.90;;;;;;4939407;29;20217;-75
2022/07/31 07:08:48;;;;;;;8.77;3.93;;;22.10;99.90;;;;;;4942394;29;20197;-75
2022/07/31 07:11:14;;;;;;;4.50;4.20;;;22.20;99.90;;;;;;4931764;29;20445;-76
2022/07/31 07:13:40;;;;;;;8.60;4.70;;;22.20;99.90;;;;;;4933511;29;20452;-76
2022/07/31 07:16:06;;;;;;;4.60;4.10;;;22.50;99.90;;;;;;4932885;29;20605;-75
2022/07/31 07:18:31;;;;;;;6.60;4.57;;;22.70;99.90;;;;;;4932999;29;20445;-74
2022/07/31 07:20:57;;;;;;;5.13;4.70;;;22.80;99.90;;;;;;4931839;29;20718;-77
2022/07/31 07:23:22;;;;;;;6.20;4.23;;;22.90;99.90;;;;;;4932911;29;20212;-76
2022/07/31 07:25:49;;;;;;;5.37;3.70;;;23.10;99.90;;;;;;4932912;29;20285;-75
2022/07/31 07:28:14;;;;;;;7.73;4.30;;;23.40;99.90;;;;;;4932143;29;20197;-76
2022/07/31 07:30:40;;;;;;;7.20;4.00;;;23.60;99.90;;;;;;4872206;29;20817;-75
2022/07/31 07:33:06;;;;;;;3.93;3.63;;;24.00;99.90;;;;;;4933002;29;20204;-75
2022/07/31 07:35:31;;;;;;;4.87;3.40;;;24.30;99.90;;;;;;4932273;29;20178;-75
2022/07/31 07:37:57;;;;;;;4.50;3.63;;;24.40;99.90;;;;;;4933833;29;20178;-76
2022/07/31 07:40:24;;;;;;;5.43;4.40;;;24.40;99.90;;;;;;4933139;29;20671;-74
2022/07/31 07:42:50;;;;;;;4.30;3.33;;;24.50;99.90;;;;;;4932517;29;20853;-75
2022/07/31 07:45:16;;;;;;;4.37;3.97;;;24.60;99.90;;;;;;4933489;29;20414;-75
2022/07/31 07:47:41;;;;;;;6.80;3.73;;;24.70;99.90;;;;;;4933733;29;20233;-73
2022/07/31 07:50:08;;;;;;;3.70;3.47;;;24.80;99.90;;;;;;4934355;29;20700;-74
2022/07/31 07:52:34;;;;;;;3.50;3.30;;;24.70;99.90;;;;;;4933158;29;20228;-76
2022/07/31 07:55:00;;;;;;;3.57;3.37;;;24.80;99.90;;;;;;4933392;29;20422;-76
2022/07/31 07:57:26;;;;;;;5.67;3.90;;;24.80;99.90;;;;;;4933441;29;20411;-76
2022/07/31 07:59:51;;;;;;;4.20;3.80;;;24.80;99.90;;;;;;4933347;29;20192;-74
2022/07/31 08:02:17;;;;;;;5.57;4.00;;;24.40;99.90;;;;;;4932145;29;20208;-75
2022/07/31 08:04:43;;;;;;;4.10;3.80;;;24.30;99.90;;;;;;4933361;29;20209;-75
2022/07/31 08:07:08;;;;;;;4.53;3.27;;;24.30;99.90;;;;;;4933117;29;20220;-76
2022/07/31 08:09:35;;;;;;;5.37;3.80;;;24.30;99.90;;;;;;4933360;29;20181;-75
2022/07/31 08:12:00;;;;;;;3.50;3.30;;;24.30;99.90;;;;;;4931627;29;20197;-75
2022/07/31 08:14:26;;;;;;;2.80;2.70;;;24.40;99.90;;;;;;4933156;29;20764;-75
2022/07/31 08:16:52;;;;;;;4.27;3.27;;;24.20;99.90;;;;;;4930161;29;20625;-75
2022/07/31 08:19:19;;;;;;;4.00;3.13;;;24.30;99.90;;;;;;4926279;29;20746;-74
2022/07/31 08:21:44;;;;;;;3.67;3.37;;;24.40;99.90;;;;;;4923852;29;20460;-74
2022/07/31 08:24:10;;;;;;;7.27;3.57;;;24.60;99.90;;;;;;4926301;29;20472;-75
2022/07/31 08:29:20;;;;;;;2.97;2.87;;;25.20;99.90;;;;;;4923761;29;20193;-73
2022/07/31 08:31:46;;;;;;;3.90;3.70;;;25.60;99.90;;;;;;4918267;29;20845;-74
2022/07/31 08:34:11;;;;;;;3.53;3.13;;;26.00;99.90;;;;;;4913816;29;20327;-75
2022/07/31 08:36:38;;;;;;;3.73;3.43;;;26.50;99.90;;;;;;4913935;29;20189;-75
2022/07/31 08:39:04;;;;;;;4.17;3.23;;;27.10;99.90;;;;;;4913450;29;20178;-75
2022/07/31 08:41:31;;;;;;;5.80;3.00;;;27.50;99.90;;;;;;4913147;29;20862;-75
2022/07/31 08:43:57;;;;;;;8.87;3.37;;;28.00;99.90;;;;;;4912604;29;20210;-75
2022/07/31 08:46:24;;;;;;;3.90;2.53;;;28.30;99.90;;;;;;4916752;29;20496;-74
2022/07/31 08:48:54;;;;;;;3.07;2.83;;;28.50;99.90;;;;;;4927394;29;20185;-75
2022/07/31 08:51:21;;;;;;;5.60;2.57;;;28.80;99.90;;;;;;4931546;29;20445;-76
2022/07/31 08:53:51;;;;;;;3.27;2.90;;;29.10;99.90;;;;;;4932852;29;20922;-75
2022/07/31 08:56:18;;;;;;;3.20;3.00;;;29.20;99.90;;;;;;4932676;29;20548;-75
2022/07/31 08:58:43;;;;;;;3.57;2.97;;;29.80;99.90;;;;;;4932229;29;20428;-74
2022/07/31 09:01:13;;;;;;;3.03;2.93;;;30.30;99.90;;;;;;4931566;29;20437;-76
2022/07/31 09:03:39;;;;;;;3.57;3.03;;;30.60;99.90;;;;;;4932757;29;20205;-75
2022/07/31 09:06:05;;;;;;;3.00;2.40;;;31.10;99.90;;;;;;4867094;29;20781;-74
2022/07/31 09:08:36;;;;;;;2.20;2.10;;;31.50;99.90;;;;;;4820442;29;20644;-76
2022/07/31 09:11:10;;;;;;;2.37;2.27;;;31.60;99.90;;;;;;4838754;29;20475;-82
2022/07/31 09:13:37;;;;;;;2.43;2.27;;;31.90;98.80;;;;;;4925860;29;20468;-78
2022/07/31 09:16:03;;;;;;;4.70;2.33;;;31.50;98.30;;;;;;4895720;29;20783;-81
2022/07/31 09:18:29;;;;;;;3.93;1.97;;;31.40;98.80;;;;;;4899358;29;20445;-79
2022/07/31 09:20:55;;;;;;;3.07;2.63;;;31.80;97.50;;;;;;4932188;29;20476;-78
2022/07/31 09:23:22;;;;;;;3.47;2.30;;;32.20;97.10;;;;;;4928872;29;20260;-78
2022/07/31 09:26:01;;;;;;;2.10;2.00;;;32.60;96.90;;;;;;4936197;29;20457;-78
2022/07/31 09:28:36;;;;;;;5.03;2.50;;;32.40;96.00;;;;;;4932125;29;20428;-78
2022/07/31 09:31:04;;;;;;;2.50;2.30;;;32.90;95.10;;;;;;4928828;29;20826;-78
2022/07/31 09:33:30;;;;;;;1.87;1.77;;;33.00;94.20;;;;;;4937105;29;20453;-78
2022/07/31 09:35:57;;;;;;;3.87;1.83;;;33.50;93.30;;;;;;4937376;29;20432;-78
2022/07/31 09:38:31;;;;;;;2.10;2.00;;;33.70;92.00;;;;;;4937241;29;20437;-78
2022/07/31 09:41:06;;;;;;;4.23;1.93;;;34.20;91.10;;;;;;4937401;29;20535;-78
2022/07/31 09:43:31;;;;;;;2.30;1.83;;;34.30;90.70;;;;;;4936916;29;20475;-78
2022/07/31 09:45:58;;;;;;;1.90;1.80;;;34.30;90.60;;;;;;4938117;29;20421;-78
2022/07/31 09:48:24;;;;;;;4.13;2.03;;;34.10;89.60;;;;;;4937372;29;20663;-78
2022/07/31 09:51:00;;;;;;;1.73;1.60;;;33.60;89.20;;;;;;4936479;29;20427;-78
2022/07/31 09:53:26;;;;;;;2.10;1.47;;;33.60;89.50;;;;;;4936891;29;20203;-79
2022/07/31 09:55:56;;;;;;;1.67;1.33;;;33.50;87.80;;;;;;4937944;29;20457;-78
2022/07/31 09:58:23;;;;;;;2.00;1.60;;;33.40;88.60;;;;;;4937316;29;20191;-78
2022/07/31 10:00:51;;;;;;;2.17;1.03;;;33.20;87.90;;;;;;4936708;29;20827;-78
2022/07/31 10:03:18;;;;;;;2.53;1.83;;;32.70;88.90;;;;;;4936749;29;20556;-79
2022/07/31 10:05:45;;;;;;;1.50;1.40;;;32.30;88.90;;;;;;4937238;29;20413;-79
2022/07/31 10:08:12;;;;;;;1.43;1.20;;;31.90;88.40;;;;;;4937258;29;20496;-78
2022/07/31 10:10:41;;;;;;;3.63;2.20;;;31.80;89.50;;;;;;4936412;29;20409;-78
2022/07/31 10:13:09;;;;;;;5.23;2.10;;;32.00;88.10;;;;;;4936259;29;20508;-78
2022/07/31 10:15:36;;;;;;;1.87;1.73;;;32.70;89.40;;;;;;4937553;29;20413;-78
2022/07/31 10:18:02;;;;;;;1.90;1.80;;;33.00;89.00;;;;;;4936962;29;20421;-78
2022/07/31 10:20:30;;;;;;;1.77;1.67;;;33.30;87.10;;;;;;4937357;29;20417;-78
2022/07/31 10:23:08;;;;;;;2.50;1.63;;;33.10;86.40;;;;;;4936221;29;20441;-80
2022/07/31 10:25:38;;;;;;;2.17;2.00;;;33.20;85.40;;;;;;4935880;29;20790;-78
2022/07/31 10:28:06;;;;;;;1.70;1.60;;;33.20;86.30;;;;;;4935951;29;20420;-76
2022/07/31 10:30:31;;;;;;;3.83;1.70;;;33.40;85.10;;;;;;4939689;29;20410;-78
2022/07/31 10:32:58;;;;;;;2.30;1.17;;;34.20;85.80;;;;;;4947889;29;20453;-78
2022/07/31 10:35:24;;;;;;;3.43;1.30;;;34.70;83.70;;;;;;4950766;29;20248;-79
2022/07/31 10:38:00;;;;;;;7.73;1.80;;;35.20;82.50;;;;;;4944792;29;20508;-78
2022/07/31 10:40:34;;;;;;;2.53;1.40;;;35.00;80.40;;;;;;4938289;29;20412;-78
2022/07/31 10:43:08;;;;;;;2.40;1.50;;;34.40;81.40;;;;;;4938368;29;20464;-79
2022/07/31 10:45:48;;;;;;;1.63;1.53;;;34.00;80.90;;;;;;4937918;29;20421;-78
2022/07/31 10:48:14;;;;;;;4.70;1.50;;;33.20;82.30;;;;;;4937659;29;20459;-79
2022/07/31 10:50:39;;;;;;;2.97;1.70;;;32.20;83.80;;;;;;4937005;29;20910;-78
2022/07/31 10:53:14;;;;;;;5.27;1.90;;;31.80;85.30;;;;;;4936837;29;20684;-78
2022/07/31 10:55:40;;;;;;;2.47;2.27;;;31.50;85.60;;;;;;4937549;29;20187;-78
2022/07/31 10:58:20;;;;;;;2.43;1.70;;;31.00;85.80;;;;;;4937542;29;20414;-78
2022/07/31 11:00:46;;;;;;;2.10;1.90;;;30.70;86.90;;;;;;4936826;29;20424;-78
2022/07/31 11:03:20;;;;;;;3.73;2.43;;;30.50;87.60;;;;;;4946977;29;20568;-78
2022/07/31 11:06:14;;;;;;;3.00;1.60;;;30.50;88.60;;;;;;4939244;29;20588;-78
2022/07/31 11:08:51;;;;;;;2.00;1.67;;;31.10;89.00;;;;;;4936146;29;20437;-78
2022/07/31 11:11:17;;;;;;;1.60;1.50;;;31.50;90.00;;;;;;4935757;29;20440;-78
2022/07/31 11:13:45;;;;;;;4.10;1.60;;;31.40;86.70;;;;;;4936571;29;20477;-78
2022/07/31 11:16:11;;;;;;;1.77;1.60;;;30.90;88.90;;;;;;4938023;29;20204;-78
2022/07/31 11:18:36;;;;;;;2.73;1.50;;;30.60;88.50;;;;;;4937763;29;20449;-78
2022/07/31 11:21:05;;;;;;;3.07;1.70;;;30.20;89.60;;;;;;4935398;29;20240;-78
2022/07/31 11:23:32;;;;;;;3.93;1.40;;;30.00;90.50;;;;;;4936457;29;20201;-77
2022/07/31 11:26:00;;;;;;;3.53;1.87;;;30.60;89.50;;;;;;4936610;29;21044;-78
2022/07/31 11:28:25;;;;;;;1.37;1.27;;;30.90;87.50;;;;;;4936224;29;20449;-78
2022/07/31 11:30:57;;;;;;;2.30;2.03;;;31.40;89.50;;;;;;4934528;29;20959;-78
2022/07/31 11:33:40;;;;;;;2.40;1.40;;;31.90;86.80;;;;;;4935450;29;20189;-78
2022/07/31 11:36:11;;;;;;;3.13;1.53;;;32.40;86.00;;;;;;4935903;29;20423;-78
2022/07/31 11:38:39;;;;;;;4.90;1.50;;;32.30;83.70;;;;;;4936099;29;20425;-78
2022/07/31 11:41:05;;;;;;;2.63;1.47;;;31.90;84.10;;;;;;4934772;29;20441;-78
2022/07/31 11:43:33;;;;;;;2.27;1.97;;;31.50;84.50;;;;;;4934467;29;20461;-76
2022/07/31 11:45:59;;;;;;;5.73;1.57;;;31.10;84.50;;;;;;4933875;29;20409;-78
2022/07/31 11:48:25;;;;;;;1.40;1.37;;;30.60;85.90;;;;;;4933738;29;20431;-72
2022/07/31 11:50:51;;;;;;;3.33;2.33;;;30.30;86.70;;;;;;4932509;29;20501;-71
2022/07/31 11:53:18;;;;;;;2.40;1.67;;;30.60;89.50;;;;;;4933186;29;20953;-72
2022/07/31 11:55:48;;;;;;;1.87;1.77;;;30.90;87.30;;;;;;4932925;29;20421;-72
2022/07/31 11:58:18;;;;;;;3.73;2.20;;;31.50;87.30;;;;;;4933331;29;20425;-71
2022/07/31 12:00:52;;;;;;;1.80;1.70;;;31.50;85.10;;;;;;4932938;29;20422;-72
2022/07/31 12:03:20;;;;;;;2.23;1.57;;;31.40;85.20;;;;;;4933085;29;20461;-72
2022/07/31 12:05:47;;;;;;;2.53;1.40;;;31.40;87.10;;;;;;4932790;29;20931;-72
2022/07/31 12:08:14;;;;;;;2.10;1.60;;;31.60;86.30;;;;;;4932775;29;20425;-72
2022/07/31 12:10:40;;;;;;;2.03;1.83;;;31.70;85.50;;;;;;4932337;29;20413;-71
2022/07/31 12:13:11;;;;;;;2.73;1.87;;;31.90;86.00;;;;;;4933174;29;20782;-73
2022/07/31 12:15:36;;;;;;;2.60;1.47;;;32.10;85.30;;;;;;4933259;29;20425;-72
2022/07/31 12:18:04;;;;;;;1.97;1.77;;;32.20;85.80;;;;;;4932771;29;20911;-73
2022/07/31 12:20:30;;;;;;;2.00;1.90;;;32.30;85.00;;;;;;4824997;29;20760;-75
2022/07/31 12:23:01;;;;;;;1.60;1.50;;;32.50;84.80;;;;;;4815754;29;20708;-75
2022/07/31 12:25:27;;;;;;;1.53;1.43;;;32.50;85.60;;;;;;4832278;29;20902;-70
2022/07/31 12:27:53;;;;;;;2.03;1.83;;;32.30;85.30;;;;;;4868316;29;20520;-71
2022/07/31 12:30:23;;;;;;;1.40;1.27;;;32.00;83.50;;;;;;4843819;29;20763;-75
2022/07/31 12:32:49;;;;;;;5.70;1.67;;;31.90;83.80;;;;;;4812681;29;20962;-75
2022/07/31 12:35:15;;;;;;;2.73;2.00;;;31.70;84.70;;;;;;4826568;29;20619;-75
2022/07/31 12:37:46;;;;;;;3.90;1.70;;;31.70;85.50;;;;;;4807860;29;21157;-75
2022/07/31 12:40:33;;;;;;;5.03;1.43;;;31.80;86.90;;;;;;4820576;29;20847;-74
2022/07/31 12:42:59;;;;;;;3.43;1.83;;;31.40;85.60;;;;;;4820923;29;20810;-74
2022/07/31 12:45:32;;;;;;;2.30;1.80;;;30.90;85.30;;;;;;4820949;29;21286;-74
2022/07/31 12:47:59;;;;;;;2.40;1.87;;;30.50;86.20;;;;;;4831886;29;21129;-75
2022/07/31 12:50:33;;;;;;;6.47;1.80;;;30.40;86.10;;;;;;4824379;29;20603;-75
2022/07/31 12:53:03;;;;;;;1.70;1.60;;;30.20;87.40;;;;;;4829286;29;20941;-74
2022/07/31 12:55:31;;;;;;;1.30;1.30;;;30.00;89.30;;;;;;4811304;29;20989;-76
2022/07/31 12:57:57;;;;;;;7.00;2.30;;;30.10;88.10;;;;;;4829722;29;20865;-76
2022/07/31 13:00:25;;;;;;;2.47;2.27;;;30.10;88.10;;;;;;4826360;29;21116;-76
2022/07/31 13:02:52;;;;;;;2.60;1.90;;;30.10;88.00;;;;;;4853138;29;20461;-72
2022/07/31 13:05:19;;;;;;;2.20;2.00;;;29.90;88.00;;;;;;4861238;29;20443;-75
2022/07/31 13:07:46;;;;;;;2.23;1.60;;;29.90;87.50;;;;;;4851884;29;21222;-75
2022/07/31 13:10:12;;;;;;;2.33;1.77;;;30.00;87.10;;;;;;4834461;29;20761;-76
2022/07/31 13:12:38;;;;;;;2.10;1.90;;;30.30;86.80;;;;;;4826571;29;20792;-75
2022/07/31 13:15:04;;;;;;;2.20;2.10;;;30.40;86.80;;;;;;4833655;29;20790;-74
2022/07/31 13:17:30;;;;;;;2.90;2.30;;;30.50;87.40;;;;;;4833166;29;21045;-74
2022/07/31 13:19:56;;;;;;;3.17;1.80;;;30.30;87.10;;;;;;4827968;29;20788;-73
2022/07/31 13:22:22;;;;;;;1.67;1.57;;;30.50;87.90;;;;;;4825028;29;20954;-74
2022/07/31 13:24:47;;;;;;;2.57;1.43;;;30.70;85.90;;;;;;4825018;29;20632;-73
2022/07/31 13:27:15;;;;;;;6.53;1.30;;;30.90;83.70;;;;;;4822191;29;20655;-74
2022/07/31 13:29:40;;;;;;;3.43;1.43;;;31.00;82.50;;;;;;4816449;29;20485;-74
2022/07/31 13:32:07;;;;;;;2.00;1.10;;;30.90;80.40;;;;;;4817597;29;20882;-76
2022/07/31 13:34:33;;;;;;;1.40;1.30;;;31.00;81.60;;;;;;4817847;29;20519;-78
2022/07/31 13:36:59;;;;;;;1.00;1.00;;;31.20;80.30;;;;;;4806729;29;20783;-76
2022/07/31 13:39:25;;;;;;;1.93;1.77;;;31.30;81.50;;;;;;4818744;29;20516;-75
2022/07/31 13:41:51;;;;;;;3.87;1.40;;;31.30;81.00;;;;;;4818500;29;20512;-73
2022/07/31 13:44:16;;;;;;;3.23;1.43;;;31.40;83.10;;;;;;4864845;29;20807;-71
2022/07/31 13:46:42;;;;;;;2.10;1.60;;;31.60;84.20;;;;;;4867965;29;20971;-72
2022/07/31 13:49:09;;;;;;;1.83;1.37;;;31.80;81.80;;;;;;4872348;29;20912;-74
2022/07/31 13:51:35;;;;;;;1.73;1.60;;;31.70;81.30;;;;;;4874743;29;20539;-73
2022/07/31 13:54:01;;;;;;;3.10;1.33;;;31.70;82.20;;;;;;4873536;29;20452;-73
2022/07/31 13:56:27;;;;;;;2.23;1.20;;;31.90;83.00;;;;;;4871589;29;20783;-73
2022/07/31 13:58:53;;;;;;;3.73;1.30;;;31.90;81.10;;;;;;4864453;29;20623;-73
2022/07/31 14:01:19;;;;;;;2.07;1.60;;;31.70;82.20;;;;;;4874879;29;20437;-73
2022/07/31 14:03:45;;;;;;;1.07;1.07;;;31.60;81.60;;;;;;4869022;29;20639;-73
2022/07/31 14:06:11;;;;;;;2.77;1.80;;;31.70;80.80;;;;;;4873622;29;20482;-73
2022/07/31 14:08:36;;;;;;;2.67;0.80;;;31.50;81.00;;;;;;4873618;29;20570;-73
2022/07/31 14:11:02;;;;;;;1.33;1.20;;;31.40;80.80;;;;;;4854902;29;20584;-75
2022/07/31 14:13:28;;;;;;;1.50;1.33;;;31.20;81.30;;;;;;4828308;29;20655;-74
2022/07/31 14:15:54;;;;;;;1.30;1.20;;;31.20;81.40;;;;;;4820557;29;20804;-75
2022/07/31 14:18:22;;;;;;;1.80;1.57;;;31.40;81.30;;;;;;4821610;29;20558;-74